Time;durP1;ratioP1;P1;durP2;ratioP2;P2;SDS_P1;SDS_P2;PMS_P1;PMS_P2;Temp;Humidity;BMP_temperature;BMP_pressure;BME280_temperature;BME280_humidity;BME280_pressure;Samples;Min_cycle;Max_cycle;Signal;HPM_P1;HPM_P2
2021/07/11 00:00:42;;;;;;;13.08;7.50;;;;;;;19.99;69.95;99661.31;129788;1092;22578;-60
2021/07/11 00:03:11;;;;;;;11.70;7.90;;;;;;;19.98;69.85;99666.02;129717;1093;114530;-60
2021/07/11 00:05:42;;;;;;;15.85;8.45;;;;;;;19.95;69.83;99660.30;129835;1093;22547;-59
2021/07/11 00:08:11;;;;;;;13.20;9.13;;;;;;;19.93;69.74;99662.56;129813;1093;22558;-59
2021/07/11 00:10:42;;;;;;;11.80;8.63;;;;;;;19.91;69.92;99656.56;129718;1093;113408;-60
2021/07/11 00:13:11;;;;;;;16.00;9.48;;;;;;;19.88;69.98;99663.53;129843;1093;22561;-60
2021/07/11 00:15:42;;;;;;;15.45;9.20;;;;;;;19.87;70.21;99658.31;129717;1092;113652;-59
2021/07/11 00:18:14;;;;;;;12.50;8.85;;;;;;;19.85;70.21;99661.39;129802;1092;22560;-59
2021/07/11 00:20:43;;;;;;;13.15;9.48;;;;;;;19.82;70.33;99659.25;129694;1093;113635;-59
2021/07/11 00:23:12;;;;;;;10.48;8.75;;;;;;;19.78;70.47;99659.06;129847;1092;22538;-60
2021/07/11 00:25:40;;;;;;;13.83;9.20;;;;;;;19.78;70.23;99652.71;129814;1092;22546;-60
2021/07/11 00:28:09;;;;;;;17.43;8.95;;;;;;;19.74;70.54;99654.50;129670;1092;113794;-60
2021/07/11 00:30:39;;;;;;;18.20;9.80;;;;;;;19.72;70.73;99651.23;129825;1093;23132;-60
2021/07/11 00:33:08;;;;;;;15.83;8.98;;;;;;;19.71;70.99;99655.94;129703;1093;113788;-60
2021/07/11 00:35:37;;;;;;;18.50;9.48;;;;;;;19.71;70.80;99657.89;129828;1093;22546;-60
2021/07/11 00:38:06;;;;;;;13.53;8.83;;;;;;;19.70;71.08;99643.25;129794;1092;23739;-60
2021/07/11 00:40:35;;;;;;;16.15;9.70;;;;;;;19.68;71.18;99642.74;126862;1093;114008;-59
2021/07/11 00:43:04;;;;;;;15.55;9.93;;;;;;;19.68;71.24;99641.92;129715;1092;23199;-59
2021/07/11 00:45:34;;;;;;;14.83;9.98;;;;;;;19.66;71.28;99639.47;129701;1093;114053;-59
2021/07/11 00:48:03;;;;;;;15.70;9.63;;;;;;;19.64;71.43;99640.91;129837;1093;23494;-59
2021/07/11 00:50:33;;;;;;;16.80;8.78;;;;;;;19.61;71.30;99631.33;129700;1092;113837;-59
2021/07/11 00:53:08;;;;;;;14.83;9.35;;;;;;;19.57;71.52;99630.31;129775;1093;22805;-60
2021/07/11 00:55:45;;;;;;;16.68;9.60;;;;;;;19.56;71.51;99644.45;129787;1093;22570;-60
2021/07/11 00:58:15;;;;;;;17.88;10.08;;;;;;;19.55;71.44;99645.58;129642;1093;113600;-60
2021/07/11 01:00:54;;;;;;;17.58;10.08;;;;;;;19.51;71.74;99639.85;129802;1093;22509;-60
2021/07/11 01:03:24;;;;;;;14.10;9.90;;;;;;;19.50;71.91;99638.22;129659;1093;114209;-62
2021/07/11 01:05:55;;;;;;;14.83;9.50;;;;;;;19.50;72.08;99640.16;129788;1093;22552;-60
2021/07/11 01:08:36;;;;;;;13.85;9.55;;;;;;;19.49;72.00;99638.49;129731;1093;113930;-59
2021/07/11 01:11:10;;;;;;;17.48;9.30;;;;;;;19.48;71.85;99640.44;129788;1093;22541;-60
2021/07/11 01:13:56;;;;;;;47.93;10.93;;;;;;;19.47;72.13;99638.84;129747;1093;23077;-60
2021/07/11 01:16:28;;;;;;;42.73;13.10;;;;;;;19.46;71.89;99639.97;129670;1093;114873;-59
2021/07/11 01:19:12;;;;;;;56.95;12.95;;;;;;;19.46;72.09;99636.38;129785;1093;22527;-60
2021/07/11 01:21:45;;;;;;;46.90;12.65;;;;;;;19.45;72.11;99637.52;129684;1093;114010;-60
2021/07/11 01:24:24;;;;;;;65.98;11.48;;;;;;;19.42;72.14;99636.19;129723;1093;22779;-60
2021/07/11 01:27:06;;;;;;;37.85;11.48;;;;;;;19.37;72.00;99628.83;129638;1093;115259;-60
2021/07/11 01:29:35;;;;;;;27.08;11.08;;;;;;;19.34;72.22;99629.45;129738;1093;22598;-60
2021/07/11 01:32:05;;;;;;;32.23;11.95;;;;;;;19.30;72.30;99631.23;129713;1093;22539;-61
2021/07/11 01:34:34;;;;;;;25.63;11.03;;;;;;;19.28;72.46;99644.53;129617;1092;114015;-60
2021/07/11 01:37:03;;;;;;;24.78;10.90;;;;;;;19.26;72.69;99626.63;129723;1093;22594;-60
2021/07/11 01:39:32;;;;;;;16.98;10.05;;;;;;;19.24;72.52;99637.98;129674;1093;114002;-60
2021/07/11 01:42:03;;;;;;;34.28;12.08;;;;;;;19.21;72.81;99638.61;129678;1093;23393;-60
2021/07/11 01:44:32;;;;;;;23.53;11.68;;;;;;;19.21;72.91;99640.55;129658;1093;114377;-60
2021/07/11 01:47:02;;;;;;;27.85;11.35;;;;;;;19.20;73.07;99641.68;129740;1093;22536;-60
2021/07/11 01:49:31;;;;;;;26.15;12.00;;;;;;;19.16;73.08;99635.98;129748;1092;23086;-60
2021/07/11 01:52:01;;;;;;;27.00;11.60;;;;;;;19.14;73.18;99632.71;129622;1093;113788;-60
2021/07/11 01:54:31;;;;;;;28.55;12.95;;;;;;;19.12;73.18;99634.97;129768;1093;23121;-60
2021/07/11 01:57:00;;;;;;;23.13;11.90;;;;;;;19.10;73.46;99634.45;129644;1093;114391;-60
2021/07/11 01:59:37;;;;;;;19.58;10.93;;;;;;;19.07;73.73;99635.89;129743;1093;23537;-61
2021/07/11 02:02:16;;;;;;;22.40;12.70;;;;;;;19.08;73.79;99633.95;129794;1092;22571;-60
2021/07/11 02:05:10;;;;;;;21.93;11.58;;;;;;;19.06;73.92;99636.20;129809;1093;22523;-60
2021/07/11 02:07:40;;;;;;;24.05;12.83;;;;;;;19.04;74.06;99630.98;129827;1093;23381;-60
2021/07/11 02:10:15;;;;;;;31.43;12.10;;;;;;;19.04;73.99;99638.48;129989;1090;115202;-61
2021/07/11 02:12:54;;;;;;;22.25;12.13;;;;;;;19.03;74.00;99639.61;130071;1090;23406;-60
2021/07/11 02:15:29;;;;;;;26.23;11.88;;;;;;;19.00;74.30;99641.04;129704;1090;114768;-60
2021/07/11 02:17:58;;;;;;;27.15;13.18;;;;;;;19.01;74.50;99639.91;130065;1090;22589;-60
2021/07/11 02:20:38;;;;;;;23.90;12.38;;;;;;;18.99;74.51;99644.92;130042;1089;23880;-60
2021/07/11 02:23:09;;;;;;;25.78;11.70;;;;;;;19.00;74.78;99652.08;129964;1090;114117;-60
2021/07/11 02:25:39;;;;;;;27.93;12.75;;;;;;;19.01;74.75;99652.91;130062;1090;22654;-60
2021/07/11 02:28:08;;;;;;;20.43;12.25;;;;;;;19.02;74.84;99649.02;129956;1090;114091;-60
2021/07/11 02:30:50;;;;;;;27.38;10.93;;;;;;;19.05;74.95;99659.42;129890;1090;22571;-61
2021/07/11 02:33:27;;;;;;;23.10;12.20;;;;;;;19.07;75.13;99657.16;129981;1089;114040;-60
2021/07/11 02:35:59;;;;;;;22.85;11.88;;;;;;;19.09;75.00;99660.44;130047;1090;22584;-60
2021/07/11 02:38:55;;;;;;;31.10;12.43;;;;;;;19.12;75.23;99654.30;130064;1091;22550;-60
2021/07/11 02:41:27;;;;;;;30.18;12.83;;;;;;;19.16;75.25;99662.79;125610;1090;113885;-60
2021/07/11 02:43:57;;;;;;;21.60;12.38;;;;;;;19.18;75.04;99666.88;125789;1088;22841;-59
2021/07/11 02:46:29;;;;;;;31.05;13.20;;;;;;;19.24;75.50;99662.03;130319;1089;114164;-60
2021/07/11 02:48:59;;;;;;;25.10;12.73;;;;;;;19.28;75.47;99671.34;130464;1089;22573;-60
2021/07/11 02:51:53;;;;;;;31.20;12.93;;;;;;;19.33;75.52;99672.02;130142;1090;114215;-61
2021/07/11 02:54:27;;;;;;;24.88;13.20;;;;;;;19.37;75.73;99670.27;130193;1090;22534;-60
2021/07/11 02:57:00;;;;;;;27.18;12.45;;;;;;;19.44;75.86;99672.63;130189;1090;23194;-60
2021/07/11 02:59:34;;;;;;;28.03;13.95;;;;;;;19.51;75.77;99672.20;130072;1090;114323;-60
2021/07/11 03:02:06;;;;;;;22.48;13.20;;;;;;;19.57;75.55;99670.95;130195;1090;22660;-60
2021/07/11 03:04:38;;;;;;;24.38;12.90;;;;;;;19.63;75.82;99669.69;130383;1090;114137;-60
2021/07/11 03:07:07;;;;;;;28.58;14.55;;;;;;;19.72;75.77;99674.16;130248;1090;22523;-60
2021/07/11 03:09:39;;;;;;;35.15;14.63;;;;;;;19.81;75.58;99668.67;130341;1090;114151;-60
2021/07/11 03:12:10;;;;;;;29.53;14.58;;;;;;;19.89;75.68;99670.70;130445;1089;22563;-60
2021/07/11 03:14:39;;;;;;;23.55;13.65;;;;;;;19.98;75.39;99666.02;130483;1090;22572;-60
2021/07/11 03:17:10;;;;;;;29.20;14.28;;;;;;;20.08;75.90;99671.28;130331;1089;114035;-60
2021/07/11 03:19:42;;;;;;;32.35;14.50;;;;;;;20.19;75.36;99665.50;130452;1090;22539;-60
2021/07/11 03:22:12;;;;;;;31.45;15.10;;;;;;;20.30;75.27;99669.61;130349;1090;114004;-60
2021/07/11 03:24:41;;;;;;;31.40;16.50;;;;;;;20.43;75.09;99668.72;130443;1089;22544;-60
2021/07/11 03:27:14;;;;;;;30.05;16.33;;;;;;;20.55;74.69;99668.11;130085;1089;114050;-60
2021/07/11 03:30:01;;;;;;;28.95;16.30;;;;;;;20.68;74.36;99667.98;130508;1090;22627;-61
2021/07/11 03:32:32;;;;;;;35.15;15.18;;;;;;;20.85;73.55;99663.63;130215;1089;22592;-61
2021/07/11 03:35:01;;;;;;;23.05;13.13;;;;;;;21.02;72.67;99670.03;130403;1088;114141;-60
2021/07/11 03:37:31;;;;;;;21.77;11.85;;;;;;;21.24;71.73;99668.27;130512;1088;23353;-60
2021/07/11 03:40:01;;;;;;;21.63;11.15;;;;;;;21.46;70.62;99660.63;128503;1089;113733;-60
2021/07/11 03:42:33;;;;;;;18.83;10.03;;;;;;;21.70;69.60;99659.30;130486;1090;22556;-60
2021/07/11 03:45:04;;;;;;;16.83;10.18;;;;;;;21.90;68.68;99666.13;130154;1088;25025;-61
2021/07/11 03:47:39;;;;;;;15.85;9.93;;;;;;;22.11;67.42;99661.52;130036;1090;113994;-61
2021/07/11 03:50:21;;;;;;;14.53;10.18;;;;;;;22.32;66.14;99658.84;130491;1089;22568;-60
2021/07/11 03:53:01;;;;;;;13.48;8.98;;;;;;;22.48;65.13;99666.30;130394;1090;114186;-61
2021/07/11 03:55:30;;;;;;;10.78;8.35;;;;;;;22.63;64.99;99661.33;130191;1090;24287;-61
2021/07/11 03:58:00;;;;;;;15.98;9.65;;;;;;;22.75;64.99;99658.64;130261;1090;114013;-61
2021/07/11 04:00:29;;;;;;;12.48;9.68;;;;;;;22.85;64.85;99667.43;130482;1089;22554;-61
2021/07/11 04:02:58;;;;;;;13.50;9.38;;;;;;;22.95;64.20;99660.66;130169;1089;22558;-60
2021/07/11 04:05:29;;;;;;;20.15;9.40;;;;;;;23.01;64.26;99650.98;130084;1090;114573;-60
2021/07/11 04:07:58;;;;;;;17.50;10.13;;;;;;;23.13;63.93;99666.92;130463;1088;22600;-61
2021/07/11 04:10:28;;;;;;;12.38;9.00;;;;;;;23.20;63.53;99664.43;130101;1090;114101;-60
2021/07/11 04:12:57;;;;;;;14.08;9.18;;;;;;;23.26;63.37;99657.50;130145;1090;23398;-61
2021/07/11 04:15:26;;;;;;;15.55;10.20;;;;;;;23.34;62.95;99656.63;130303;1090;114412;-60
2021/07/11 04:17:58;;;;;;;15.23;9.40;;;;;;;23.44;62.97;99649.84;130177;1090;22525;-61
2021/07/11 04:20:27;;;;;;;12.03;8.45;;;;;;;23.53;62.58;99647.81;130176;1090;23372;-61
2021/07/11 04:22:58;;;;;;;10.83;8.28;;;;;;;23.65;62.65;99649.86;130300;1088;114085;-61
2021/07/11 04:25:32;;;;;;;17.18;9.40;;;;;;;23.75;62.46;99652.20;130167;1090;23801;-60
2021/07/11 04:28:00;;;;;;;13.20;8.58;;;;;;;23.84;61.80;99645.38;130109;1089;114008;-61
2021/07/11 04:30:29;;;;;;;17.83;9.18;;;;;;;23.94;62.13;99652.51;130458;1089;22542;-61
2021/07/11 04:32:58;;;;;;;12.43;9.05;;;;;;;24.05;61.61;99652.88;130197;1090;22760;-61
2021/07/11 04:35:28;;;;;;;13.23;10.45;;;;;;;24.15;61.41;99653.23;130376;1089;113836;-60
2021/07/11 04:37:58;;;;;;;16.25;8.93;;;;;;;24.22;60.31;99656.28;130507;1090;22547;-61
2021/07/11 04:40:26;;;;;;;23.00;9.48;;;;;;;24.34;60.08;99660.27;130368;1089;114057;-61
2021/07/11 04:42:55;;;;;;;39.88;10.80;;;;;;;24.44;59.42;99657.02;130457;1090;22581;-61
2021/07/11 04:45:25;;;;;;;14.73;8.63;;;;;;;24.54;59.63;99659.34;130393;1090;114268;-61
2021/07/11 04:47:54;;;;;;;11.73;8.33;;;;;;;24.61;59.46;99659.59;130171;1090;23658;-60
2021/07/11 04:50:23;;;;;;;10.33;8.10;;;;;;;24.69;59.42;99658.64;130501;1090;22507;-61
2021/07/11 04:52:51;;;;;;;13.10;7.95;;;;;;;24.76;58.76;99656.10;130370;1090;113913;-61
2021/07/11 04:55:20;;;;;;;10.13;7.23;;;;;;;24.85;57.92;99659.56;130459;1088;22579;-61
2021/07/11 04:57:49;;;;;;;9.30;7.03;;;;;;;24.96;56.60;99657.95;130392;1090;113982;-60
2021/07/11 05:00:20;;;;;;;10.98;6.70;;;;;;;25.04;55.51;99658.19;130181;1090;22568;-60
2021/07/11 05:02:49;;;;;;;9.03;6.60;;;;;;;25.15;55.80;99662.11;130476;1088;22609;-60
2021/07/11 05:05:18;;;;;;;8.38;5.73;;;;;;;25.25;54.99;99658.83;130340;1090;113799;-61
2021/07/11 05:07:47;;;;;;;29.50;7.60;;;;;;;25.39;55.65;99661.26;130458;1090;22506;-61
2021/07/11 05:10:16;;;;;;;12.25;7.58;;;;;;;25.49;54.41;99664.36;130346;1089;113937;-60
2021/07/11 05:12:45;;;;;;;10.73;7.23;;;;;;;25.58;53.88;99664.20;130475;1090;22616;-60
2021/07/11 05:15:14;;;;;;;7.30;5.95;;;;;;;25.70;53.45;99653.82;130363;1089;114156;-60
2021/07/11 05:17:43;;;;;;;7.98;6.43;;;;;;;25.84;53.88;99663.76;130444;1090;23086;-62
2021/07/11 05:20:13;;;;;;;11.05;5.35;;;;;;;26.02;52.65;99659.48;130450;1090;22551;-62
2021/07/11 05:22:42;;;;;;;12.35;5.25;;;;;;;26.21;51.73;99661.59;130351;1089;115250;-62
2021/07/11 05:25:11;;;;;;;10.40;5.00;;;;;;;26.44;51.16;99667.39;130142;1089;22534;-61
2021/07/11 05:27:40;;;;;;;9.75;5.20;;;;;;;26.73;50.16;99656.56;130330;1089;114252;-63
2021/07/11 05:30:10;;;;;;;8.35;5.00;;;;;;;27.08;49.32;99656.63;130419;1090;22640;-61
2021/07/11 05:32:39;;;;;;;9.68;5.53;;;;;;;27.51;48.84;99663.15;130058;1090;22602;-61
2021/07/11 05:35:09;;;;;;;6.60;4.50;;;;;;;27.96;47.28;99659.69;130341;1089;114178;-61
2021/07/11 05:37:38;;;;;;;5.80;4.30;;;;;;;28.41;45.36;99658.95;130185;1089;22604;-61
2021/07/11 05:40:08;;;;;;;8.43;4.65;;;;;;;28.84;44.83;99659.68;130330;1090;114414;-67
2021/07/11 05:42:37;;;;;;;12.50;5.33;;;;;;;29.20;43.98;99663.80;130450;1089;22570;-67
2021/07/11 05:45:09;;;;;;;6.13;4.50;;;;;;;29.61;43.94;99667.59;130458;1089;22871;-67
2021/07/11 05:47:39;;;;;;;7.23;4.40;;;;;;;30.02;42.47;99665.69;130348;1089;113744;-67
2021/07/11 05:50:09;;;;;;;9.33;4.80;;;;;;;30.36;41.73;99655.19;130461;1090;22556;-67
2021/07/11 05:52:40;;;;;;;5.20;4.18;;;;;;;30.68;41.24;99657.51;130269;1089;114109;-66
2021/07/11 05:55:10;;;;;;;8.13;5.23;;;;;;;30.96;40.13;99657.72;130464;1089;23087;-67
2021/07/11 05:57:39;;;;;;;10.90;4.63;;;;;;;31.21;39.45;99655.08;130338;1090;114050;-67
2021/07/11 06:00:09;;;;;;;4.78;4.28;;;;;;;31.41;38.35;99659.22;130452;1090;22546;-67
2021/07/11 06:02:42;;;;;;;8.30;4.45;;;;;;;31.65;37.21;99662.56;130446;1090;23601;-66
2021/07/11 06:05:11;;;;;;;10.83;4.45;;;;;;;31.73;36.73;99658.59;130046;1090;113998;-66
2021/07/11 06:07:40;;;;;;;8.98;4.88;;;;;;;31.67;36.89;99646.88;130417;1089;22876;-66
2021/07/11 06:10:10;;;;;;;7.23;4.75;;;;;;;31.67;37.44;99649.70;130367;1088;113340;-66
2021/07/11 06:12:40;;;;;;;6.90;4.23;;;;;;;31.63;36.60;99644.02;130471;1088;23386;-65
2021/07/11 06:15:09;;;;;;;5.75;4.85;;;;;;;31.45;36.47;99645.94;130460;1089;22578;-66
2021/07/11 06:17:38;;;;;;;7.35;4.50;;;;;;;31.31;37.04;99642.28;130368;1089;113728;-66
2021/07/11 06:20:09;;;;;;;5.63;4.45;;;;;;;31.21;36.69;99641.81;130441;1089;22562;-65
2021/07/11 06:22:38;;;;;;;4.53;3.78;;;;;;;31.05;37.23;99637.66;130359;1089;113200;-65
2021/07/11 06:25:07;;;;;;;4.68;4.20;;;;;;;30.93;37.76;99641.61;130425;1088;22550;-65
2021/07/11 06:27:41;;;;;;;5.73;3.93;;;;;;;30.83;37.32;99639.54;130351;1090;114352;-65
2021/07/11 06:30:15;;;;;;;5.13;3.90;;;;;;;30.68;36.88;99647.06;130461;1089;22539;-65
2021/07/11 06:32:45;;;;;;;7.23;3.78;;;;;;;30.56;37.87;99644.56;130473;1088;22914;-65
2021/07/11 06:35:16;;;;;;;5.93;4.33;;;;;;;30.50;37.60;99643.27;130390;1088;114114;-65
2021/07/11 06:37:48;;;;;;;5.67;4.30;;;;;;;30.45;37.02;99635.17;130454;1090;23364;-65
2021/07/11 06:40:19;;;;;;;5.23;4.08;;;;;;;30.32;36.96;99642.28;130369;1090;113896;-62
2021/07/11 06:42:48;;;;;;;7.88;3.90;;;;;;;30.23;36.55;99637.81;130111;1089;22558;-60
2021/07/11 06:45:17;;;;;;;7.70;4.23;;;;;;;30.21;36.98;99642.20;130378;1089;116563;-63
2021/07/11 06:47:47;;;;;;;4.18;3.78;;;;;;;30.18;36.21;99646.59;130505;1090;22533;-63
2021/07/11 06:50:16;;;;;;;5.55;4.05;;;;;;;30.06;37.10;99634.81;130475;1088;22557;-62
2021/07/11 06:52:47;;;;;;;5.45;3.85;;;;;;;29.99;36.15;99631.95;130378;1089;113770;-62
2021/07/11 06:55:16;;;;;;;8.73;4.03;;;;;;;29.93;37.48;99633.45;130467;1088;22578;-62
2021/07/11 06:57:45;;;;;;;6.58;4.05;;;;;;;29.88;37.77;99634.59;130358;1089;113849;-62
2021/07/11 07:00:15;;;;;;;5.60;3.70;;;;;;;29.85;37.12;99636.20;130430;1090;22528;-62
2021/07/11 07:02:43;;;;;;;13.23;3.88;;;;;;;29.84;37.07;99640.20;130454;1090;22538;-63
2021/07/11 07:05:12;;;;;;;12.48;4.18;;;;;;;29.79;36.46;99637.72;130377;1089;113924;-62
2021/07/11 07:07:41;;;;;;;10.90;4.18;;;;;;;29.73;37.75;99632.81;130139;1090;22559;-62
2021/07/11 07:10:13;;;;;;;5.70;4.55;;;;;;;29.73;36.52;99639.24;130373;1088;113925;-63
2021/07/11 07:12:43;;;;;;;4.85;3.50;;;;;;;29.72;37.00;99636.84;130424;1089;22557;-61
2021/07/11 07:15:13;;;;;;;17.13;5.38;;;;;;;29.67;37.72;99634.37;130474;1090;22547;-62
2021/07/11 07:17:45;;;;;;;9.55;4.20;;;;;;;29.65;37.63;99636.75;130330;1090;113862;-63
2021/07/11 07:20:14;;;;;;;7.30;3.60;;;;;;;29.62;38.33;99638.31;130489;1090;25152;-63
2021/07/11 07:22:44;;;;;;;6.10;3.48;;;;;;;29.62;38.25;99643.13;130357;1089;113549;-63
2021/07/11 07:25:14;;;;;;;8.10;3.88;;;;;;;29.60;37.29;99640.70;130447;1089;22567;-63
2021/07/11 07:27:43;;;;;;;10.13;5.00;;;;;;;29.51;38.00;99641.00;130339;1090;113971;-63
2021/07/11 07:30:20;;;;;;;9.13;4.53;;;;;;;29.44;38.87;99643.70;130478;1088;22629;-64
2021/07/11 07:32:50;;;;;;;5.65;4.45;;;;;;;29.45;38.47;99641.70;130461;1090;22559;-63
2021/07/11 07:35:19;;;;;;;13.85;5.48;;;;;;;29.47;38.15;99642.14;130400;1089;113807;-63
2021/07/11 07:37:49;;;;;;;10.75;4.83;;;;;;;29.46;38.51;99637.71;130476;1090;22567;-63
2021/07/11 07:40:18;;;;;;;10.38;4.48;;;;;;;29.47;38.75;99650.56;130373;1089;114295;-63
2021/07/11 07:42:55;;;;;;;6.20;4.35;;;;;;;29.52;38.87;99650.23;130492;1089;23071;-63
2021/07/11 07:45:24;;;;;;;8.28;4.75;;;;;;;29.57;38.48;99647.10;130392;1090;113965;-63
2021/07/11 07:47:53;;;;;;;8.98;4.95;;;;;;;29.60;39.31;99649.12;130485;1090;22533;-63
2021/07/11 07:50:22;;;;;;;7.18;5.35;;;;;;;29.63;39.83;99648.36;130480;1089;22525;-63
2021/07/11 07:52:51;;;;;;;11.15;5.28;;;;;;;29.63;39.06;99648.36;130434;1090;113653;-63
2021/07/11 07:55:20;;;;;;;7.95;5.38;;;;;;;29.59;39.51;99644.69;130522;1089;22556;-63
2021/07/11 07:57:49;;;;;;;8.23;5.40;;;;;;;29.58;39.89;99643.08;130388;1088;114371;-63
2021/07/11 08:00:18;;;;;;;13.53;5.35;;;;;;;29.62;39.33;99643.13;130488;1090;22505;-63
2021/07/11 08:02:48;;;;;;;7.23;4.90;;;;;;;29.62;39.53;99649.55;130459;1090;22686;-63
2021/07/11 08:05:17;;;;;;;10.85;4.68;;;;;;;29.64;39.77;99643.55;130366;1090;112934;-63
2021/07/11 08:07:46;;;;;;;11.33;4.63;;;;;;;29.66;39.96;99639.17;130482;1090;22545;-64
2021/07/11 08:10:15;;;;;;;8.93;4.80;;;;;;;29.68;39.70;99642.41;130323;1089;113824;-63
2021/07/11 08:12:49;;;;;;;9.65;5.20;;;;;;;29.72;39.04;99634.03;130486;1089;22646;-63
2021/07/11 08:15:19;;;;;;;8.70;5.13;;;;;;;29.66;38.49;99639.17;130503;1089;23626;-62
2021/07/11 08:17:49;;;;;;;10.10;4.35;;;;;;;29.65;39.05;99643.17;130396;1089;112932;-63
2021/07/11 08:20:19;;;;;;;10.80;5.20;;;;;;;29.66;39.45;99635.56;130476;1090;23076;-63
2021/07/11 08:22:48;;;;;;;9.23;5.50;;;;;;;29.68;39.77;99631.18;130413;1090;114149;-63
2021/07/11 08:25:17;;;;;;;6.53;5.38;;;;;;;29.69;40.12;99635.61;130510;1089;24062;-63
2021/07/11 08:27:46;;;;;;;13.10;5.58;;;;;;;29.68;40.61;99633.98;130420;1090;113996;-63
2021/07/11 08:30:17;;;;;;;6.13;5.00;;;;;;;29.68;40.38;99630.38;130500;1089;22512;-62
2021/07/11 08:32:46;;;;;;;9.00;5.45;;;;;;;29.70;40.70;99623.18;130461;1090;22582;-62
2021/07/11 08:35:15;;;;;;;12.85;5.13;;;;;;;29.69;40.39;99627.18;130345;1089;114903;-63
2021/07/11 08:37:44;;;;;;;7.83;4.88;;;;;;;29.65;39.35;99617.09;130188;1090;23611;-62
2021/07/11 08:40:13;;;;;;;13.95;4.83;;;;;;;29.60;39.88;99623.84;130330;1089;113711;-63
2021/07/11 08:42:43;;;;;;;14.20;5.00;;;;;;;29.59;38.94;99619.42;130465;1089;22602;-63
2021/07/11 08:45:13;;;;;;;7.65;4.38;;;;;;;29.58;39.04;99619.83;130511;1090;23698;-63
2021/07/11 08:47:42;;;;;;;10.18;3.90;;;;;;;29.60;39.30;99623.03;130392;1090;113650;-63
2021/07/11 08:50:33;;;;;;;6.13;3.73;;;;;;;29.69;38.28;99617.95;130075;1090;22645;-63
2021/07/11 08:53:03;;;;;;;9.13;4.13;;;;;;;29.74;37.75;99621.20;130001;1090;113529;-63
2021/07/11 08:55:31;;;;;;;7.10;4.00;;;;;;;29.76;38.10;99618.01;130074;1090;22596;-63
2021/07/11 08:58:01;;;;;;;26.75;6.30;;;;;;;29.78;38.59;99627.67;130009;1090;113969;-64
2021/07/11 09:00:34;;;;;;;6.03;4.10;;;;;;;29.80;38.33;99622.48;130106;1090;22626;-64
2021/07/11 09:03:04;;;;;;;5.35;4.00;;;;;;;29.75;37.84;99622.82;130089;1090;22552;-65
2021/07/11 09:05:39;;;;;;;8.43;4.43;;;;;;;29.74;38.03;99626.01;130007;1090;113880;-64
2021/07/11 09:08:24;;;;;;;7.80;4.08;;;;;;;29.75;37.56;99616.39;130098;1090;22749;-64
2021/07/11 09:10:58;;;;;;;6.03;3.85;;;;;;;29.79;37.40;99609.63;129986;1090;113587;-63
2021/07/11 09:13:30;;;;;;;5.60;3.98;;;;;;;29.87;38.70;99611.31;130094;1090;23088;-63
2021/07/11 09:16:13;;;;;;;13.70;4.47;;;;;;;29.96;37.88;99615.83;130016;1090;113836;-63
2021/07/11 09:18:42;;;;;;;30.55;5.60;;;;;;;30.06;36.40;99617.95;130099;1089;22647;-63
2021/07/11 09:21:13;;;;;;;9.70;4.38;;;;;;;30.10;36.22;99611.19;130235;1089;22675;-63
2021/07/11 09:23:42;;;;;;;8.48;4.35;;;;;;;30.14;36.72;99611.23;130405;1089;114039;-63
2021/07/11 09:26:12;;;;;;;7.10;4.30;;;;;;;30.17;36.44;99613.23;130175;1089;22593;-63
2021/07/11 09:28:50;;;;;;;10.60;4.58;;;;;;;30.21;36.64;99602.84;130379;1089;114364;-63
2021/07/11 09:31:20;;;;;;;4.78;3.75;;;;;;;30.22;35.19;99610.89;130469;1089;22524;-65
2021/07/11 09:33:57;;;;;;;15.88;4.48;;;;;;;30.20;36.25;99618.90;130366;1090;113998;-65
2021/07/11 09:36:26;;;;;;;;;;;;;;;30.18;35.95;99597.99;130525;1090;22555;-64
2021/07/11 09:39:00;;;;;;;9.00;4.50;;;;;;;30.16;36.08;99606.81;130235;1090;21239;-63
2021/07/11 09:41:33;;;;;;;6.23;4.28;;;;;;;30.11;36.43;99597.95;130376;1089;113801;-63
2021/07/11 09:44:04;;;;;;;6.85;4.28;;;;;;;30.02;36.42;99600.25;130482;1089;22539;-63
2021/07/11 09:46:36;;;;;;;6.23;4.28;;;;;;;29.92;36.65;99601.73;130388;1088;114056;-63
2021/07/11 09:49:17;;;;;;;9.50;3.80;;;;;;;29.84;36.68;99595.25;130499;1089;22561;-62
2021/07/11 09:51:48;;;;;;;6.03;4.08;;;;;;;29.74;36.40;99595.92;130121;1089;114289;-63
2021/07/11 09:54:17;;;;;;;9.27;3.73;;;;;;;29.69;36.63;99603.91;130477;1090;22563;-63
2021/07/11 09:56:46;;;;;;;6.73;3.98;;;;;;;29.66;36.70;99601.86;130484;1089;22575;-63
2021/07/11 09:59:17;;;;;;;8.05;4.18;;;;;;;29.61;36.14;99596.58;130329;1090;113745;-63
2021/07/11 10:01:46;;;;;;;8.85;4.18;;;;;;;29.59;36.42;99598.95;130458;1089;22526;-63
2021/07/11 10:04:15;;;;;;;6.83;3.90;;;;;;;29.53;37.07;99596.50;130413;1090;113843;-63
2021/07/11 10:07:03;;;;;;;8.35;4.40;;;;;;;29.47;37.82;99608.45;130495;1090;22539;-63
2021/07/11 10:09:32;;;;;;;10.10;4.33;;;;;;;29.39;37.46;99601.95;130122;1090;113964;-63
2021/07/11 10:12:01;;;;;;;43.85;6.80;;;;;;;29.35;38.94;99603.05;130514;1089;22601;-63
2021/07/11 10:14:31;;;;;;;8.35;3.80;;;;;;;29.32;38.55;99592.59;130182;1090;23338;-63
2021/07/11 10:17:19;;;;;;;10.15;3.98;;;;;;;29.31;38.49;99588.97;130386;1090;113822;-63
2021/07/11 10:19:49;;;;;;;6.93;3.98;;;;;;;29.35;36.99;99597.44;130453;1089;22477;-63
2021/07/11 10:22:18;;;;;;;5.60;3.80;;;;;;;29.41;36.41;99590.34;130407;1089;113797;-63
2021/07/11 10:24:48;;;;;;;6.18;4.48;;;;;;;29.46;36.22;99587.98;130465;1089;22536;-63
2021/07/11 10:27:17;;;;;;;7.55;3.95;;;;;;;29.51;36.11;99587.66;130494;1088;22542;-63
2021/07/11 10:29:47;;;;;;;7.40;3.88;;;;;;;29.54;36.67;99591.70;130411;1090;113585;-63
2021/07/11 10:32:29;;;;;;;6.08;4.00;;;;;;;29.53;37.47;99590.08;130497;1090;22565;-63
2021/07/11 10:35:14;;;;;;;7.43;4.13;;;;;;;29.50;36.29;99596.45;130375;1089;113953;-63
2021/07/11 10:37:54;;;;;;;10.33;5.18;;;;;;;29.44;37.01;99595.98;130474;1090;22519;-63
2021/07/11 10:40:33;;;;;;;4.68;4.18;;;;;;;29.43;37.22;99585.16;130055;1090;114194;-63
2021/07/11 10:43:11;;;;;;;6.88;4.05;;;;;;;29.45;37.23;99591.17;130500;1089;22559;-62
2021/07/11 10:45:45;;;;;;;7.78;3.98;;;;;;;29.46;37.85;99592.80;130386;1090;114246;-63
2021/07/11 10:48:15;;;;;;;8.85;4.05;;;;;;;29.48;37.57;99590.41;130481;1090;23748;-62
2021/07/11 10:50:44;;;;;;;4.50;3.90;;;;;;;29.52;37.54;99594.08;130509;1090;22639;-61
2021/07/11 10:53:17;;;;;;;59.93;7.03;;;;;;;29.59;37.04;99593.34;130362;1090;113797;-61
2021/07/11 10:55:46;;;;;;;14.40;4.10;;;;;;;29.64;37.26;99591.00;130476;1090;23382;-62
2021/07/11 10:58:16;;;;;;;13.13;4.00;;;;;;;29.65;37.28;99589.81;130403;1090;113810;-61
2021/07/11 11:00:46;;;;;;;7.75;4.28;;;;;;;29.61;36.74;99586.15;130511;1088;22513;-61
2021/07/11 11:03:23;;;;;;;7.08;4.00;;;;;;;29.59;37.48;99593.34;130501;1089;22626;-61
2021/07/11 11:05:52;;;;;;;5.38;3.88;;;;;;;29.62;37.05;99584.15;130391;1090;113557;-63
2021/07/11 11:08:23;;;;;;;7.95;4.28;;;;;;;29.68;37.27;99580.63;130505;1089;22567;-64
2021/07/11 11:10:54;;;;;;;9.50;4.00;;;;;;;29.75;38.09;99577.06;130382;1088;113823;-63
2021/07/11 11:13:25;;;;;;;6.35;4.23;;;;;;;29.84;37.16;99567.16;130486;1089;22597;-63
2021/07/11 11:15:55;;;;;;;4.40;3.98;;;;;;;29.92;36.64;99564.41;130332;1088;114476;-63
2021/07/11 11:18:30;;;;;;;5.98;4.10;;;;;;;30.03;36.95;99570.95;130518;1090;22522;-63
2021/07/11 11:21:12;;;;;;;3.50;3.20;;;;;;;30.14;35.44;99574.69;130457;1088;22579;-63
2021/07/11 11:23:50;;;;;;;5.95;4.00;;;;;;;30.22;35.76;99571.55;130383;1090;113848;-64
2021/07/11 11:27:38;;;;;;;6.10;4.40;;;;;;;30.27;35.93;99576.00;125570;1091;22784;-63
2021/07/11 11:30:18;;;;;;;8.68;4.00;;;;;;;30.22;36.24;99577.16;130054;1093;22594;-63
2021/07/11 11:32:54;;;;;;;6.23;4.23;;;;;;;30.15;36.36;99565.84;129958;1092;22557;-63
2021/07/11 11:35:24;;;;;;;;;;;;;;;30.03;36.32;99571.76;129765;1092;115355;-63
2021/07/11 11:37:59;;;;;;;5.55;3.93;;;;;;;29.88;36.78;99576.41;129829;1092;21753;-63